Time;durP1;ratioP1;P1;durP2;ratioP2;P2;SDS_P1;SDS_P2;PMS_P1;PMS_P2;Temp;Humidity;BMP_temperature;BMP_pressure;BME280_temperature;BME280_humidity;BME280_pressure;Samples;Min_cycle;Max_cycle;Signal;HPM_P1;HPM_P2
2022/06/01 00:00:54;;;;;;;;;;;;;;;11.52;100.00;101321.25;4992395;28;19921;-32
2022/06/01 00:03:23;;;;;;;;;;;;;;;11.51;100.00;101325.16;4992641;28;19961;-32
2022/06/01 00:05:53;;;;;;;;;;;;;;;11.46;100.00;101320.47;4992613;28;20079;-31
2022/06/01 00:08:21;;;;;;;;;;;;;;;11.48;100.00;101325.75;4991999;28;19936;-30
2022/06/01 00:10:51;;;;;;;;;;;;;;;11.47;100.00;101321.28;4992471;28;20038;-32
2022/06/01 00:13:19;;;;;;;;;;;;;;;11.46;100.00;101316.81;4992013;28;19998;-30
2022/06/01 00:15:47;;;;;;;;;;;;;;;11.47;100.00;101324.91;4992627;28;19922;-31
2022/06/01 00:18:14;;;;;;;;;;;;;;;11.47;100.00;101318.50;4992364;28;19944;-32
2022/06/01 00:20:42;;;;;;;;;;;;;;;11.45;100.00;101316.00;4992099;28;19929;-32
2022/06/01 00:23:10;;;;;;;;;;;;;;;11.43;100.00;101311.81;4995571;28;19957;-31
2022/06/01 00:25:38;;;;;;;;;;;;;;;11.40;100.00;101319.66;4996199;28;20393;-37
2022/06/01 00:28:07;;;;;;;;;;;;;;;11.38;100.00;101315.53;4995343;28;19999;-30
2022/06/01 00:30:35;;;;;;;;;;;;;;;11.38;100.00;101315.53;4995865;28;19928;-36
2022/06/01 00:33:03;;;;;;;;;;;;;;;11.36;100.00;101317.78;4995950;28;19926;-34
2022/06/01 00:35:31;;;;;;;;;;;;;;;11.35;100.00;101316.94;4995325;28;20299;-29
2022/06/01 00:37:58;;;;;;;;;;;;;;;11.35;100.00;101314.16;4995423;28;19925;-33
2022/06/01 00:40:27;;;;;;;;;;;;;;;11.34;100.00;101308.84;4995855;28;19928;-34
2022/06/01 00:42:58;;;;;;;;;;;;;;;11.33;100.00;101313.59;4995348;28;19969;-32
2022/06/01 00:45:28;;;;;;;;;;;;;;;11.33;100.00;101315.56;4995546;28;19945;-32
2022/06/01 00:47:56;;;;;;;;;;;;;;;11.32;100.00;101311.94;4995179;28;19929;-29
2022/06/01 00:50:25;;;;;;;;;;;;;;;11.31;100.00;101310.25;4994712;28;19922;-31
2022/06/01 00:52:56;;;;;;;;;;;;;;;11.32;100.00;101316.69;4995597;28;20361;-35
2022/06/01 00:55:25;;;;;;;;;;;;;;;11.32;100.00;101319.47;4995072;28;20272;-34
2022/06/01 00:57:54;;;;;;;;;;;;;;;11.33;100.00;101316.41;4995271;28;19922;-34
2022/06/01 01:00:23;;;;;;;;;;;;;;;11.34;100.00;101317.22;4995328;28;19921;-31
2022/06/01 01:02:55;;;;;;;;;;;;;;;11.37;100.00;101317.47;4994769;28;20366;-34
2022/06/01 01:05:24;;;;;;;;;;;;;;;11.40;100.00;101313.25;4995134;28;19976;-32
2022/06/01 01:07:52;;;;;;;;;;;;;;;11.42;100.00;101308.19;4995158;28;19932;-32
2022/06/01 01:10:21;;;;;;;;;;;;;;;11.45;100.00;101316.00;4994815;28;20276;-34
2022/06/01 01:13:04;;;;;;;;;;;;;;;11.49;100.00;101314.28;4994882;28;19925;-35
2022/06/01 01:15:35;;;;;;;;;;;;;;;11.51;100.00;101309.25;4995155;28;19949;-33
2022/06/01 01:18:07;;;;;;;;;;;;;;;11.51;100.00;101312.03;4994614;28;20375;-30
2022/06/01 01:20:36;;;;;;;;;;;;;;;11.50;100.00;101312.31;4995046;28;19944;-36
2022/06/01 01:23:10;;;;;;;;;;;;;;;11.50;100.00;101301.97;4994910;28;20466;-35
2022/06/01 01:25:39;;;;;;;;;;;;;;;11.50;100.00;101303.94;4993087;28;19922;-40
2022/06/01 01:28:08;;;;;;;;;;;;;;;11.51;100.00;101297.22;4995039;28;19925;-34
2022/06/01 01:30:49;;;;;;;;;;;;;;;11.51;100.00;101297.22;4994462;28;19922;-35
2022/06/01 01:33:18;;;;;;;;;;;;;;;11.53;100.00;101289.38;4993697;28;20227;-38
2022/06/01 01:35:47;;;;;;;;;;;;;;;11.54;100.00;101285.47;4994911;28;19964;-30
2022/06/01 01:38:18;;;;;;;;;;;;;;;11.56;100.00;101283.22;4994144;28;19928;-38
2022/06/01 01:40:58;;;;;;;;;;;;;;;11.56;100.00;101281.25;4994774;28;19932;-33
2022/06/01 01:43:26;;;;;;;;;;;;;;;11.56;100.00;101284.03;4994817;28;19944;-31
2022/06/01 01:45:53;;;;;;;;;;;;;;;11.57;100.00;101287.66;4994031;28;19929;-30
2022/06/01 01:48:21;;;;;;;;;;;;;;;11.56;100.00;101280.41;4994221;28;20017;-34
2022/06/01 01:50:49;;;;;;;;;;;;;;;11.56;100.00;101283.22;4994392;28;19921;-34
2022/06/01 01:53:17;;;;;;;;;;;;;;;11.53;100.00;101284.63;4993793;28;19922;-30
2022/06/01 01:55:51;;;;;;;;;;;;;;;11.53;100.00;101289.38;4994390;28;20376;-37
2022/06/01 01:58:26;;;;;;;;;;;;;;;11.51;100.00;101278.50;4994551;28;19933;-34
2022/06/01 02:00:58;;;;;;;;;;;;;;;11.50;100.00;101273.19;4993722;28;20028;-35
2022/06/01 02:03:28;;;;;;;;;;;;;;;11.47;100.00;101271.00;4994335;28;19928;-29
2022/06/01 02:06:07;;;;;;;;;;;;;;;11.45;100.00;101276.03;4993840;28;20008;-31
2022/06/01 02:08:38;;;;;;;;;;;;;;;11.43;100.00;101275.50;4994075;28;19932;-36
2022/06/01 02:13:57;;;;;;;;;;;;;;;11.39;100.00;101278.03;4993514;28;19921;-28
2022/06/01 02:16:26;;;;;;;;;;;;;;;11.37;100.00;101275.56;4993846;28;19968;-36
2022/06/01 02:18:55;;;;;;;;;;;;;;;11.35;100.00;101272.22;4993999;28;19945;-40
2022/06/01 02:21:26;;;;;;;;;;;;;;;11.35;100.00;101280.63;4993551;28;19921;-41
2022/06/01 02:23:54;;;;;;;;;;;;;;;11.37;100.00;101281.16;4993892;28;20024;-31
2022/06/01 02:26:22;;;;;;;;;;;;;;;11.40;100.00;101274.94;4993810;28;20290;-29
2022/06/01 02:28:52;;;;;;;;;;;;;;;11.43;100.00;101278.28;4993191;28;20053;-32
2022/06/01 02:31:22;;;;;;;;;;;;;;;11.47;100.00;101273.78;4993895;28;19928;-35
2022/06/01 02:33:50;;;;;;;;;;;;;;;11.50;100.00;101268.44;4993504;28;19956;-35
2022/06/01 02:36:20;;;;;;;;;;;;;;;11.51;100.00;101264.53;4993422;28;19929;-33
2022/06/01 02:38:49;;;;;;;;;;;;;;;11.53;100.00;101256.69;4993486;28;19961;-31
2022/06/01 02:44:02;;;;;;;;;;;;;;;11.57;100.00;101254.13;4993093;28;20375;-28
2022/06/01 02:46:31;;;;;;;;;;;;;;;11.63;100.00;101252.91;4993509;28;19926;-33
2022/06/01 02:49:00;;;;;;;;;;;;;;;11.72;100.00;101254.78;4993008;28;19944;-37
2022/06/01 02:51:28;;;;;;;;;;;;;;;11.82;100.00;101253.00;4991832;28;19964;-28
2022/06/01 02:53:55;;;;;;;;;;;;;;;11.91;100.00;101256.81;4993327;28;19922;-38
2022/06/01 02:56:24;;;;;;;;;;;;;;;11.94;100.00;101251.47;4992840;28;20391;-27
2022/06/01 02:58:52;;;;;;;;;;;;;;;11.97;100.00;101250.06;4993357;28;19933;-32
2022/06/01 03:01:20;;;;;;;;;;;;;;;11.98;100.00;101257.31;4993225;28;19937;-34
2022/06/01 03:03:50;;;;;;;;;;;;;;;11.89;100.00;101251.53;4992506;28;19925;-38
2022/06/01 03:06:18;;;;;;;;;;;;;;;11.82;100.00;101255.81;4993321;28;19921;-36
2022/06/01 03:08:45;;;;;;;;;;;;;;;11.74;100.00;101263.72;4993051;28;20394;-35
2022/06/01 03:11:13;;;;;;;;;;;;;;;11.69;100.00;101265.72;4992433;28;20020;-30
2022/06/01 03:13:41;;;;;;;;;;;;;;;11.68;100.00;101264.06;4992982;28;20005;-38
2022/06/01 03:16:09;;;;;;;;;;;;;;;11.67;100.00;101266.00;4992465;28;20020;-31
2022/06/01 03:18:37;;;;;;;;;;;;;;;11.71;100.00;101261.50;4992726;28;19921;-32
2022/06/01 03:21:06;;;;;;;;;;;;;;;11.73;100.00;101258.41;4992996;28;19925;-36
2022/06/01 03:23:34;;;;;;;;;;;;;;;11.75;100.00;101267.34;4990807;28;19930;-34
2022/06/01 03:26:02;;;;;;;;;;;;;;;11.76;100.00;101260.66;4990985;28;19929;-33
2022/06/01 03:28:29;;;;;;;;;;;;;;;11.76;100.00;101268.16;4991665;28;19921;-33
2022/06/01 03:30:57;;;;;;;;;;;;;;;11.74;100.00;101265.66;4991759;28;19952;-31
2022/06/01 03:33:24;;;;;;;;;;;;;;;11.72;100.00;101271.56;4992572;28;19949;-34
2022/06/01 03:35:52;;;;;;;;;;;;;;;11.70;100.00;101278.56;4992359;28;19922;-37
2022/06/01 03:38:21;;;;;;;;;;;;;;;11.65;100.00;101271.06;4990678;28;20012;-37
2022/06/01 03:40:49;;;;;;;;;;;;;;;11.63;100.00;101278.91;4990520;28;19925;-36
2022/06/01 03:43:19;;;;;;;;;;;;;;;11.62;100.00;101282.00;4992219;28;19929;-36
2022/06/01 03:45:57;;;;;;;;;;;;;;;11.62;100.00;101279.19;4992199;28;19968;-34
2022/06/01 03:48:27;;;;;;;;;;;;;;;11.60;100.00;101285.09;4992577;28;19953;-35
2022/06/01 03:50:55;;;;;;;;;;;;;;;11.60;100.00;101287.06;4992588;28;19926;-30
2022/06/01 03:53:24;;;;;;;;;;;;;;;11.58;100.00;101283.75;4991875;28;20389;-33
2022/06/01 03:55:53;;;;;;;;;;;;;;;11.57;100.00;101284.88;4992719;28;19921;-32
2022/06/01 03:58:22;;;;;;;;;;;;;;;11.53;100.00;101283.78;4996181;28;19922;-37
2022/06/01 04:00:50;;;;;;;;;;;;;;;11.51;100.00;101283.25;4996248;28;19929;-40
2022/06/01 04:03:18;;;;;;;;;;;;;;;11.51;100.00;101289.69;4996593;28;19922;-35
2022/06/01 04:05:46;;;;;;;;;;;;;;;11.49;100.00;101289.13;4995891;28;19968;-34
2022/06/01 04:08:14;;;;;;;;;;;;;;;11.51;100.00;101289.69;4995944;28;20036;-36
2022/06/01 04:10:44;;;;;;;;;;;;;;;11.53;100.00;101295.81;4996201;28;19922;-35
2022/06/01 04:13:12;;;;;;;;;;;;;;;11.56;100.00;101295.22;4995960;28;19996;-36
2022/06/01 04:15:39;;;;;;;;;;;;;;;11.57;100.00;101291.31;4996134;28;20599;-31
2022/06/01 04:18:07;;;;;;;;;;;;;;;11.59;100.00;101294.59;4996375;28;19975;-40
2022/06/01 04:20:36;;;;;;;;;;;;;;;11.59;100.00;101299.38;4995337;28;19922;-34
2022/06/01 04:23:04;;;;;;;;;;;;;;;11.60;100.00;101301.88;4996304;28;20267;-32
2022/06/01 04:25:32;;;;;;;;;;;;;;;11.60;100.00;101306.63;4995943;28;19953;-31
2022/06/01 04:28:01;;;;;;;;;;;;;;;11.59;100.00;101305.78;4994127;28;20294;-32
2022/06/01 04:30:29;;;;;;;;;;;;;;;11.59;100.00;101310.56;4994971;28;20378;-32
2022/06/01 04:32:57;;;;;;;;;;;;;;;11.55;100.00;101306.69;4995844;28;19922;-33
2022/06/01 04:35:25;;;;;;;;;;;;;;;11.53;100.00;101303.34;4994463;28;19926;-35
2022/06/01 04:37:53;;;;;;;;;;;;;;;11.50;100.00;101309.53;4994903;28;20506;-33
2022/06/01 04:40:22;;;;;;;;;;;;;;;11.47;100.00;101310.13;4994809;28;19922;-35
2022/06/01 04:42:49;;;;;;;;;;;;;;;11.44;100.00;101310.69;4994142;28;19921;-34
2022/06/01 04:45:19;;;;;;;;;;;;;;;11.41;100.00;101309.31;4994672;28;19925;-31
2022/06/01 04:47:47;;;;;;;;;;;;;;;11.40;100.00;101308.47;4993958;28;20725;-33
2022/06/01 04:50:15;;;;;;;;;;;;;;;11.40;100.00;101314.06;4994344;28;19922;-35
2022/06/01 04:52:42;;;;;;;;;;;;;;;11.43;100.00;101306.22;4994655;28;19940;-38
2022/06/01 04:55:10;;;;;;;;;;;;;;;11.46;100.00;101319.63;4993602;28;19933;-30
2022/06/01 04:57:39;;;;;;;;;;;;;;;11.49;100.00;101310.66;4993696;28;20052;-35
2022/06/01 05:00:08;;;;;;;;;;;;;;;11.55;100.00;101312.28;4994118;28;19921;-38
2022/06/01 05:02:37;;;;;;;;;;;;;;;11.62;100.00;101310.78;4992338;28;19932;-33
2022/06/01 05:05:05;;;;;;;;;;;;;;;11.68;100.00;101304.03;4994044;28;20403;-31
2022/06/01 05:07:33;;;;;;;;;;;;;;;11.74;100.00;101318.78;4993882;28;20379;-33
2022/06/01 05:10:01;;;;;;;;;;;;;;;11.81;100.00;101319.28;4993288;28;20016;-38
2022/06/01 05:12:28;;;;;;;;;;;;;;;11.90;100.00;101311.94;4994091;28;19921;-38
2022/06/01 05:14:56;;;;;;;;;;;;;;;12.01;100.00;101318.22;4993786;28;19926;-37
2022/06/01 05:17:23;;;;;;;;;;;;;;;12.09;100.00;101317.56;4993068;28;19925;-35
2022/06/01 05:19:52;;;;;;;;;;;;;;;12.18;100.00;101312.16;4994096;28;19929;-33
2022/06/01 05:22:20;;;;;;;;;;;;;;;12.26;100.00;101311.47;4994113;28;19925;-35
2022/06/01 05:24:47;;;;;;;;;;;;;;;12.32;100.00;101310.28;4993106;28;19932;-37
2022/06/01 05:27:15;;;;;;;;;;;;;;;12.36;100.00;101311.38;4993076;28;19926;-33
2022/06/01 05:29:43;;;;;;;;;;;;;;;12.38;100.00;101307.16;4993443;28;19929;-34
2022/06/01 05:32:11;;;;;;;;;;;;;;;12.43;100.00;101303.41;4993080;28;20012;-35
2022/06/01 05:34:38;;;;;;;;;;;;;;;12.45;100.00;101300.31;4993423;28;20280;-35
2022/06/01 05:37:07;;;;;;;;;;;;;;;12.48;100.00;101302.53;4993279;28;19928;-36
2022/06/01 05:39:35;;;;;;;;;;;;;;;12.50;100.00;101308.66;4994423;28;20334;-34
2022/06/01 05:42:03;;;;;;;;;;;;;;;12.51;100.00;101307.53;4994503;28;19944;-37
2022/06/01 05:44:31;;;;;;;;;;;;;;;12.52;100.00;101304.41;4994626;28;19921;-32
2022/06/01 05:47:00;;;;;;;;;;;;;;;12.54;100.00;101304.97;4994451;28;20287;-34
2022/06/01 05:49:28;;;;;;;;;;;;;;;12.56;100.00;101296.25;4993102;28;19922;-34
2022/06/01 05:51:55;;;;;;;;;;;;;;;12.58;100.00;101299.59;4992960;28;20447;-35
2022/06/01 05:54:25;;;;;;;;;;;;;;;12.61;100.00;101298.97;4993269;28;19921;-33
2022/06/01 05:56:52;;;;;;;;;;;;;;;12.65;100.00;101308.44;4994303;28;19968;-38
2022/06/01 05:59:20;;;;;;;;;;;;;;;12.66;100.00;101307.28;4993667;28;19922;-32
2022/06/01 06:01:48;;;;;;;;;;;;;;;12.67;100.00;101300.56;4993170;28;20008;-32
2022/06/01 06:04:15;;;;;;;;;;;;;;;12.73;100.00;101307.75;4994229;28;19932;-33
2022/06/01 06:06:43;;;;;;;;;;;;;;;12.79;100.00;101314.94;4993336;28;19976;-33
2022/06/01 06:09:11;;;;;;;;;;;;;;;12.83;100.00;101301.16;4993922;28;19923;-35
2022/06/01 06:11:41;;;;;;;;;;;;;;;12.87;100.00;101303.06;4994220;28;19922;-34
2022/06/01 06:14:09;;;;;;;;;;;;;;;12.90;100.00;101305.25;4993189;28;20379;-39
2022/06/01 06:16:40;;;;;;;;;;;;;;;12.95;100.00;101313.59;4994056;28;19922;-38
2022/06/01 06:19:09;;;;;;;;;;;;;;;13.02;100.00;101315.97;4992727;28;19922;-35
2022/06/01 06:21:37;;;;;;;;;;;;;;;13.15;100.00;101318.06;4993572;28;20361;-31
2022/06/01 06:24:06;;;;;;;;;;;;;;;13.24;100.00;101316.22;4994021;28;19988;-33
2022/06/01 06:26:33;;;;;;;;;;;;;;;13.44;100.00;101321.47;4993468;28;19921;-33
2022/06/01 06:29:03;;;;;;;;;;;;;;;13.80;100.00;101329.22;4993440;28;19964;-33
2022/06/01 06:31:31;;;;;;;;;;;;;;;14.27;100.00;101324.38;4993633;28;20391;-35
2022/06/01 06:33:59;;;;;;;;;;;;;;;14.69;100.00;101338.06;4992997;28;19921;-33
2022/06/01 06:36:26;;;;;;;;;;;;;;;14.98;100.00;101342.50;4993497;28;20290;-36
2022/06/01 06:38:54;;;;;;;;;;;;;;;15.35;100.00;101336.50;4993588;28;19934;-39
2022/06/01 06:41:22;;;;;;;;;;;;;;;16.02;100.00;101341.22;4992882;28;19922;-32
2022/06/01 06:43:50;;;;;;;;;;;;;;;16.82;100.00;101343.63;4993475;28;20346;-34
2022/06/01 06:46:20;;;;;;;;;;;;;;;17.66;98.57;101338.66;4993457;28;20341;-34
2022/06/01 06:48:49;;;;;;;;;;;;;;;18.36;94.61;101340.91;4992580;28;20024;-28
2022/06/01 06:51:17;;;;;;;;;;;;;;;19.13;91.68;101342.41;4993806;28;19926;-30
2022/06/01 06:53:45;;;;;;;;;;;;;;;19.67;83.17;101355.78;4992379;28;19956;-36
2022/06/01 06:56:13;;;;;;;;;;;;;;;20.22;80.83;101358.97;4992598;28;19926;-33
2022/06/01 06:58:41;;;;;;;;;;;;;;;20.60;73.34;101361.47;4993420;28;19929;-35
2022/06/01 07:01:09;;;;;;;;;;;;;;;20.59;69.71;101364.66;4992510;28;19969;-30
2022/06/01 07:03:38;;;;;;;;;;;;;;;20.21;67.09;101368.63;4993107;28;19935;-32
2022/06/01 07:06:17;;;;;;;;;;;;;;;19.88;68.48;101363.03;4993508;28;19941;-32
2022/06/01 07:08:46;;;;;;;;;;;;;;;19.84;70.74;101366.91;4992872;28;19922;-35
2022/06/01 07:11:14;;;;;;;;;;;;;;;19.88;69.58;101367.88;4992845;28;19929;-35
2022/06/01 07:13:42;;;;;;;;;;;;;;;19.69;66.92;101376.06;4993018;28;19922;-38
2022/06/01 07:16:11;;;;;;;;;;;;;;;19.32;68.02;101384.38;4992503;28;20291;-30
2022/06/01 07:18:41;;;;;;;;;;;;;;;18.93;69.72;101380.84;4993200;28;19928;-36
2022/06/01 07:21:09;;;;;;;;;;;;;;;18.66;71.85;101384.16;4993196;28;19922;-30
2022/06/01 07:23:38;;;;;;;;;;;;;;;18.73;74.19;101383.63;4992464;28;19925;-35
2022/06/01 07:26:07;;;;;;;;;;;;;;;19.07;75.09;101379.75;4992998;28;19929;-39
2022/06/01 07:28:35;;;;;;;;;;;;;;;19.64;71.64;101387.59;4993282;28;19961;-37
2022/06/01 07:31:04;;;;;;;;;;;;;;;19.81;67.82;101378.94;4994330;28;19972;-39
2022/06/01 07:33:32;;;;;;;;;;;;;;;19.55;65.92;101393.38;4997110;28;20342;-37
2022/06/01 07:36:03;;;;;;;;;;;;;;;19.16;67.23;101387.00;4997018;28;19922;-39
2022/06/01 07:44:11;;;;;;;;;;;;;;;19.42;65.98;101402.94;4996212;28;19944;-37
2022/06/01 07:46:39;;;;;;;;;;;;;;;19.79;66.77;101395.44;4996767;28;19926;-39
2022/06/01 07:49:13;;;;;;;;;;;;;;;20.14;63.06;101401.59;4996595;28;20318;-33
2022/06/01 07:52:02;;;;;;;;;;;;;;;20.49;64.92;101404.84;4995880;28;19922;-34
2022/06/01 07:54:30;;;;;;;;;;;;;;;21.16;65.28;101403.41;4996473;28;20418;-35
2022/06/01 07:56:58;;;;;;;;;;;;;;;21.73;56.38;101399.47;4996352;28;20442;-38
2022/06/01 07:59:25;;;;;;;;;;;;;;;21.97;58.13;101403.00;4995438;28;19928;-36
2022/06/01 08:01:53;;;;;;;;;;;;;;;22.36;57.28;101399.59;4996288;28;19921;-37
2022/06/01 08:04:21;;;;;;;;;;;;;;;22.27;52.71;101400.59;4995104;28;20334;-36
2022/06/01 08:06:49;;;;;;;;;;;;;;;22.41;55.81;101407.84;4995762;28;20370;-40
2022/06/01 08:09:25;;;;;;;;;;;;;;;22.57;54.96;101397.31;4996368;28;19932;-33
2022/06/01 08:14:38;;;;;;;;;;;;;;;23.42;54.05;101410.72;4996308;28;19925;-34
2022/06/01 08:17:05;;;;;;;;;;;;;;;23.44;51.60;101414.03;4996221;28;20413;-33
2022/06/01 08:19:34;;;;;;;;;;;;;;;23.24;50.69;101418.88;4995594;28;19922;-39
2022/06/01 08:22:01;;;;;;;;;;;;;;;22.59;48.17;101411.97;4996103;28;20290;-31
2022/06/01 08:24:31;;;;;;;;;;;;;;;21.95;51.86;101415.94;4995949;28;19922;-35
2022/06/01 08:26:59;;;;;;;;;;;;;;;21.36;52.79;101418.66;4995553;28;19922;-30
2022/06/01 08:29:27;;;;;;;;;;;;;;;21.01;55.07;101419.13;4996022;28;20290;-36
2022/06/01 08:31:54;;;;;;;;;;;;;;;20.80;56.69;101415.59;4995889;28;19928;-32
2022/06/01 08:34:22;;;;;;;;;;;;;;;20.57;56.88;101421.78;4995219;28;19929;-30
2022/06/01 08:36:50;;;;;;;;;;;;;;;20.30;57.79;101417.56;4995820;28;19923;-33
2022/06/01 08:39:17;;;;;;;;;;;;;;;19.89;60.15;101427.00;4995785;28;19922;-34
2022/06/01 08:41:46;;;;;;;;;;;;;;;19.60;63.92;101425.09;4994648;28;19989;-35
2022/06/01 08:44:20;;;;;;;;;;;;;;;19.39;65.93;101429.09;4995666;28;20283;-33
2022/06/01 08:46:47;;;;;;;;;;;;;;;19.17;67.21;101422.63;4995685;28;20387;-30
2022/06/01 08:49:20;;;;;;;;;;;;;;;19.03;68.49;101424.03;4995427;28;19953;-30
2022/06/01 08:51:48;;;;;;;;;;;;;;;18.85;69.95;101426.13;4995523;28;19929;-30
2022/06/01 08:54:16;;;;;;;;;;;;;;;18.64;70.03;101428.91;4994741;28;20421;-30
2022/06/01 08:56:44;;;;;;;;;;;;;;;18.51;71.66;101419.47;4995626;28;19922;-31
2022/06/01 08:59:18;;;;;;;;;;;;;;;18.34;71.08;101430.00;4995435;28;19928;-33
2022/06/01 09:02:05;;;;;;;;;;;;;;;18.28;73.02;101425.69;4994771;28;19922;-30
2022/06/01 09:04:38;;;;;;;;;;;;;;;18.45;76.43;101434.94;4995691;28;20295;-30
2022/06/01 09:07:12;;;;;;;;;;;;;;;18.76;75.25;101428.19;4995534;28;19922;-37
2022/06/01 09:09:46;;;;;;;;;;;;;;;19.29;77.75;101436.00;4994615;28;20024;-33
2022/06/01 09:12:14;;;;;;;;;;;;;;;20.08;72.58;101434.97;4995099;28;20024;-31
2022/06/01 09:14:45;;;;;;;;;;;;;;;20.45;69.36;101433.06;4995023;28;19934;-31
2022/06/01 09:17:13;;;;;;;;;;;;;;;21.05;70.92;101442.78;4994900;28;19926;-31
2022/06/01 09:22:40;;;;;;;;;;;;;;;22.59;60.46;101440.41;4994429;28;20355;-30
2022/06/01 09:25:10;;;;;;;;;;;;;;;23.19;58.87;101446.81;4994940;28;19922;-37
2022/06/01 09:27:39;;;;;;;;;;;;;;;23.41;50.94;101450.97;4995027;28;19926;-31
2022/06/01 09:30:19;;;;;;;;;;;;;;;23.45;52.19;101443.34;4994210;28;19922;-37
2022/06/01 09:32:59;;;;;;;;;;;;;;;23.72;54.65;101453.75;4994893;28;19922;-30
2022/06/01 09:35:29;;;;;;;;;;;;;;;24.21;52.16;101461.66;4994716;28;19980;-36
2022/06/01 09:37:56;;;;;;;;;;;;;;;24.46;48.45;101465.88;4994026;28;19922;-31
2022/06/01 09:40:26;;;;;;;;;;;;;;;24.49;51.11;101464.28;4994648;28;20024;-32
2022/06/01 09:42:54;;;;;;;;;;;;;;;24.75;49.90;101457.81;4994019;28;20020;-31
2022/06/01 09:45:25;;;;;;;;;;;;;;;25.04;49.15;101459.97;4994233;28;19928;-35
2022/06/01 09:47:53;;;;;;;;;;;;;;;25.29;47.62;101472.63;4994854;28;20287;-30
2022/06/01 09:50:24;;;;;;;;;;;;;;;25.43;46.64;101469.13;4993998;28;20016;-37
2022/06/01 09:52:56;;;;;;;;;;;;;;;25.56;47.24;101464.84;4994612;28;19979;-31
2022/06/01 09:55:25;;;;;;;;;;;;;;;25.52;45.54;101466.00;4993436;28;19957;-42
2022/06/01 09:58:05;;;;;;;;;;;;;;;25.45;47.07;101472.44;4993597;28;20394;-39
2022/06/01 10:06:20;;;;;;;;;;;;;;;26.09;44.76;101467.59;4993561;28;19921;-43
2022/06/01 10:09:00;;;;;;;;;;;;;;;26.16;45.72;101470.56;4994229;28;19926;-38
2022/06/01 10:11:29;;;;;;;;;;;;;;;26.20;44.90;101467.72;4993314;28;20025;-31
2022/06/01 10:14:03;;;;;;;;;;;;;;;26.26;43.25;101466.97;4994185;28;20028;-33
2022/06/01 10:16:39;;;;;;;;;;;;;;;26.32;40.33;101473.22;4994054;28;20001;-32
2022/06/01 10:19:10;;;;;;;;;;;;;;;26.40;43.48;101475.75;4992902;28;19962;-30
2022/06/01 10:21:45;;;;;;;;;;;;;;;26.67;41.83;101475.59;4993988;28;19926;-37
2022/06/01 10:24:15;;;;;;;;;;;;;;;26.85;40.52;101470.84;4993769;28;20286;-39
2022/06/01 10:26:48;;;;;;;;;;;;;;;26.96;42.27;101468.13;4993202;28;19921;-40
2022/06/01 10:29:18;;;;;;;;;;;;;;;27.06;42.88;101471.06;4993834;28;20012;-30
2022/06/01 10:31:48;;;;;;;;;;;;;;;27.29;41.90;101475.75;4993595;28;19921;-38
2022/06/01 10:34:19;;;;;;;;;;;;;;;27.48;41.69;101475.44;4993149;28;20015;-32
2022/06/01 10:36:50;;;;;;;;;;;;;;;27.62;40.86;101484.16;4993835;28;19922;-30
2022/06/01 10:39:20;;;;;;;;;;;;;;;27.78;40.63;101486.69;4993255;28;19922;-30
2022/06/01 10:41:52;;;;;;;;;;;;;;;27.86;38.52;101484.69;4993393;28;20328;-30
2022/06/01 10:44:24;;;;;;;;;;;;;;;28.01;39.06;101480.66;4993696;28;20032;-30
2022/06/01 10:46:57;;;;;;;;;;;;;;;28.04;38.38;101499.94;4992828;28;19930;-32
2022/06/01 10:49:39;;;;;;;;;;;;;;;27.76;37.19;101492.88;4993542;28;19922;-30
2022/06/01 10:52:21;;;;;;;;;;;;;;;27.46;37.89;101495.09;4993425;28;20389;-38
2022/06/01 10:54:53;;;;;;;;;;;;;;;27.47;38.34;101496.75;4992865;28;19928;-33
2022/06/01 10:57:22;;;;;;;;;;;;;;;27.40;37.46;101502.41;4993608;28;19928;-30
2022/06/01 10:59:49;;;;;;;;;;;;;;;27.15;37.81;101495.69;4993405;28;19925;-34
2022/06/01 11:02:26;;;;;;;;;;;;;;;27.09;35.66;101498.94;4991286;28;20383;-32
2022/06/01 11:05:01;;;;;;;;;;;;;;;27.26;37.74;101502.31;4992925;28;19921;-31
2022/06/01 11:07:49;;;;;;;;;;;;;;;27.44;38.10;101504.09;4992632;28;19922;-30
2022/06/01 11:10:23;;;;;;;;;;;;;;;27.60;37.72;101506.69;4993252;28;20386;-39
2022/06/01 11:12:59;;;;;;;;;;;;;;;27.68;38.18;101507.56;4993244;28;19928;-30
2022/06/01 11:15:47;;;;;;;;;;;;;;;27.75;38.08;101514.16;4992403;28;19928;-31
2022/06/01 11:18:26;;;;;;;;;;;;;;;27.75;37.29;101516.22;4992877;28;19922;-36
2022/06/01 11:21:01;;;;;;;;;;;;;;;27.79;39.52;101509.25;4993268;28;20020;-31
2022/06/01 11:23:35;;;;;;;;;;;;;;;27.85;38.75;101517.47;4991296;28;19921;-30
2022/06/01 11:26:06;;;;;;;;;;;;;;;27.89;38.89;101522.03;4993339;28;19926;-31
2022/06/01 11:28:52;;;;;;;;;;;;;;;27.91;38.78;101524.50;4992587;28;19953;-30
2022/06/01 11:31:21;;;;;;;;;;;;;;;27.92;37.64;101511.78;4993036;28;19944;-30
2022/06/01 11:33:53;;;;;;;;;;;;;;;27.94;37.36;101517.94;4992785;28;19922;-36
2022/06/01 11:36:25;;;;;;;;;;;;;;;27.84;36.40;101518.69;4990784;28;19928;-36
2022/06/01 11:38:55;;;;;;;;;;;;;;;27.74;35.57;101523.16;4992709;28;19926;-30
2022/06/01 11:41:25;;;;;;;;;;;;;;;27.68;35.86;101519.84;4992798;28;20470;-35
2022/06/01 11:43:55;;;;;;;;;;;;;;;27.68;36.12;101522.72;4992000;28;20452;-31
2022/06/01 11:46:24;;;;;;;;;;;;;;;27.69;36.68;101529.28;4992556;28;19926;-30
2022/06/01 11:48:57;;;;;;;;;;;;;;;27.72;36.28;101532.19;4992565;28;19922;-30
2022/06/01 11:51:27;;;;;;;;;;;;;;;27.62;35.16;101532.91;4992293;28;19921;-29
2022/06/01 11:53:58;;;;;;;;;;;;;;;27.42;34.93;101529.47;4992737;28;20438;-29
2022/06/01 11:56:34;;;;;;;;;;;;;;;27.22;34.19;101533.00;4992650;28;20424;-37
2022/06/01 11:59:06;;;;;;;;;;;;;;;27.20;35.21;101538.28;4992620;28;19922;-30
2022/06/01 12:01:37;;;;;;;;;;;;;;;27.19;34.81;101545.25;4993050;28;20029;-38
2022/06/01 12:04:17;;;;;;;;;;;;;;;27.09;34.59;101544.78;4991969;28;19921;-35
2022/06/01 12:06:51;;;;;;;;;;;;;;;27.17;36.24;101545.66;4992784;28;19949;-34
2022/06/01 12:09:24;;;;;;;;;;;;;;;27.16;36.22;101538.28;4992638;28;20012;-40
2022/06/01 12:11:52;;;;;;;;;;;;;;;27.16;36.19;101541.16;4991934;28;19928;-31
2022/06/01 12:14:23;;;;;;;;;;;;;;;27.07;37.77;101552.13;4992610;28;20474;-30
2022/06/01 12:17:05;;;;;;;;;;;;;;;27.05;37.41;101541.03;4992353;28;20028;-30
2022/06/01 12:19:35;;;;;;;;;;;;;;;27.04;37.30;101550.03;4995046;28;19929;-31
2022/06/01 12:22:03;;;;;;;;;;;;;;;27.01;38.83;101551.66;4995985;28;20027;-33
2022/06/01 12:30:14;;;;;;;;;;;;;;;26.81;38.47;101544.47;4995978;28;20275;-34
2022/06/01 12:33:00;;;;;;;;;;;;;;;26.72;38.20;101559.13;4995294;28;19932;-31
2022/06/01 12:35:31;;;;;;;;;;;;;;;26.70;37.65;101557.84;4995975;28;20024;-30
2022/06/01 12:38:00;;;;;;;;;;;;;;;26.69;39.35;101556.22;4995808;28;20025;-32
2022/06/01 12:40:29;;;;;;;;;;;;;;;26.66;38.30;101554.94;4994940;28;19928;-38
2022/06/01 12:42:58;;;;;;;;;;;;;;;26.56;39.46;101555.66;4995418;28;20443;-33
2022/06/01 12:45:28;;;;;;;;;;;;;;;26.55;38.41;101558.94;4995813;28;19925;-31
2022/06/01 12:47:58;;;;;;;;;;;;;;;26.57;38.81;101559.38;4994971;28;19930;-37
2022/06/01 12:50:28;;;;;;;;;;;;;;;26.64;39.34;101563.09;4995565;28;19922;-38
2022/06/01 12:53:12;;;;;;;;;;;;;;;26.54;37.98;101566.69;4994716;28;19921;-38
2022/06/01 12:55:40;;;;;;;;;;;;;;;26.50;37.65;101568.69;4995616;28;19988;-34
2022/06/01 12:58:15;;;;;;;;;;;;;;;26.41;38.06;101573.88;4995300;28;20405;-32
2022/06/01 13:00:48;;;;;;;;;;;;;;;26.30;37.88;101568.03;4994795;28;19926;-30
2022/06/01 13:03:16;;;;;;;;;;;;;;;26.06;38.15;101562.78;4995612;28;19926;-39
2022/06/01 13:05:46;;;;;;;;;;;;;;;25.85;38.71;101566.16;4995224;28;19929;-42
2022/06/01 13:08:18;;;;;;;;;;;;;;;25.72;39.33;101567.59;4994460;28;19965;-33
2022/06/01 13:10:57;;;;;;;;;;;;;;;25.44;39.17;101576.53;4995323;28;20035;-37
2022/06/01 13:13:27;;;;;;;;;;;;;;;25.40;40.79;101573.59;4994930;28;19929;-37